createdAt,value
2023-04-15T00:03:35.000Z,98267.88
2023-04-15T00:07:40.978Z,98274.28
2023-04-15T00:11:44.572Z,98269.66
2023-04-15T00:15:48.269Z,98263.03
2023-04-15T00:19:51.593Z,98248.69
2023-04-15T00:23:56.536Z,98256.44
2023-04-15T00:27:59.642Z,98230.88
2023-04-15T00:32:03.061Z,98230.69
2023-04-15T00:36:08.704Z,98238.28
2023-04-15T00:40:15.018Z,98225.63
2023-04-15T00:44:19.090Z,98238.59
2023-04-15T00:48:23.153Z,98244.19
2023-04-15T00:52:26.192Z,98246.16
2023-04-15T00:56:32.322Z,98237.78
2023-04-15T01:00:36.333Z,98235.16
2023-04-15T01:04:39.834Z,98241.81
2023-04-15T01:08:43.233Z,98244.13
2023-04-15T01:12:48.184Z,98225.44
2023-04-15T01:16:52.321Z,98219.13
2023-04-15T01:20:55.559Z,98210.38
2023-04-15T01:25:05.048Z,98211.56
2023-04-15T01:29:10.795Z,98211.44
2023-04-15T01:33:14.002Z,98216.22
2023-04-15T01:37:17.194Z,98213.09
2023-04-15T01:41:25.496Z,98206.41
2023-04-15T01:45:31.275Z,98202.00
2023-04-15T01:49:34.807Z,98211.31
2023-04-15T01:53:38.151Z,98217.44
2023-04-15T01:57:41.878Z,98204.72
2023-04-15T02:01:46.811Z,98212.09
2023-04-15T02:05:51.191Z,98193.56
2023-04-15T02:09:54.656Z,98196.75
2023-04-15T02:13:58.225Z,98204.47
2023-04-15T02:18:03.016Z,98208.00
2023-04-15T02:22:07.697Z,98203.38
2023-04-15T02:26:11.479Z,98217.56
2023-04-15T02:30:14.926Z,98213.91
2023-04-15T02:34:21.180Z,98209.47
2023-04-15T02:38:24.380Z,98214.28
2023-04-15T02:42:29.187Z,98218.47
2023-04-15T02:46:33.196Z,98222.47
2023-04-15T02:50:39.916Z,98223.03
2023-04-15T02:54:43.577Z,98220.94
2023-04-15T02:58:47.420Z,98226.09
2023-04-15T03:02:52.732Z,98217.88
2023-04-15T03:06:58.806Z,98229.81
2023-04-15T03:11:03.076Z,98229.03
2023-04-15T03:15:07.278Z,98231.38
2023-04-15T03:19:11.145Z,98228.00
2023-04-15T03:23:16.481Z,98234.31
2023-04-15T03:27:19.763Z,98238.03
2023-04-15T03:31:23.155Z,98231.09
2023-04-15T03:35:26.943Z,98235.16
2023-04-15T03:39:32.026Z,98232.78
2023-04-15T03:43:35.533Z,98229.88
2023-04-15T03:47:39.557Z,98229.25
2023-04-15T03:51:43.275Z,98239.25
2023-04-15T03:55:48.535Z,98226.63
2023-04-15T03:59:51.922Z,98231.06
2023-04-15T04:03:55.646Z,98223.97
2023-04-15T04:08:00.179Z,98224.38
2023-04-15T04:12:05.575Z,98218.63
2023-04-15T04:16:09.256Z,98235.97
2023-04-15T04:20:13.036Z,98229.88
2023-04-15T04:24:16.687Z,98236.75
2023-04-15T04:28:22.540Z,98229.09
2023-04-15T04:32:26.527Z,98239.22
2023-04-15T04:36:30.026Z,98242.41
2023-04-15T04:40:34.975Z,98238.66
2023-04-15T04:44:42.417Z,98248.66
2023-04-15T04:48:48.009Z,98242.78
2023-04-15T04:52:52.050Z,98245.41
2023-04-15T04:56:55.967Z,98246.59
2023-04-15T05:01:04.679Z,98247.59
2023-04-15T05:05:11.603Z,98248.59
2023-04-15T05:09:16.727Z,98240.06
2023-04-15T05:13:22.182Z,98252.00
2023-04-15T05:17:28.557Z,98254.16
2023-04-15T05:21:33.646Z,98263.28
2023-04-15T05:25:38.546Z,98249.63
2023-04-15T05:29:42.994Z,98261.63
2023-04-15T05:33:48.497Z,98259.41
2023-04-15T05:37:52.955Z,98258.75
2023-04-15T05:41:58.133Z,98267.09
2023-04-15T05:46:02.752Z,98270.53
2023-04-15T05:50:09.329Z,98265.75
2023-04-15T05:54:15.057Z,98273.56
2023-04-15T05:58:19.503Z,98275.06
2023-04-15T06:02:26.877Z,98262.25
2023-04-15T06:06:35.235Z,98275.91
2023-04-15T06:10:40.238Z,98271.41
2023-04-15T06:14:44.899Z,98270.38
2023-04-15T06:18:49.733Z,98280.13
2023-04-15T06:22:57.420Z,98279.66
2023-04-15T06:27:02.665Z,98278.03
2023-04-15T06:31:06.966Z,98279.28
2023-04-15T06:35:12.117Z,98272.91
2023-04-15T06:39:17.760Z,98282.56
2023-04-15T06:43:22.314Z,98284.63
2023-04-15T06:47:26.511Z,98289.75
2023-04-15T06:51:31.356Z,98288.81
2023-04-15T06:55:37.033Z,98287.13
2023-04-15T06:59:41.191Z,98276.41
2023-04-15T07:03:45.856Z,98289.13
2023-04-15T07:07:51.126Z,98295.13
2023-04-15T07:11:57.421Z,98280.66
2023-04-15T07:16:02.620Z,98296.47
2023-04-15T07:20:07.886Z,98306.00
2023-04-15T07:24:12.433Z,98308.78
2023-04-15T07:28:18.414Z,98308.09
2023-04-15T07:32:23.125Z,98317.72
2023-04-15T07:36:28.650Z,98313.66
2023-04-15T07:40:34.086Z,98326.31
2023-04-15T07:44:39.878Z,98318.50
2023-04-15T07:48:44.663Z,98321.75
2023-04-15T07:52:49.653Z,98329.25
2023-04-15T07:56:53.931Z,98321.47
2023-04-15T08:00:59.996Z,98329.31
2023-04-15T08:05:04.915Z,98321.59
2023-04-15T08:09:10.459Z,98322.56
2023-04-15T08:13:15.543Z,98325.94
2023-04-15T08:17:21.254Z,98322.31
2023-04-15T08:21:25.818Z,98335.69
2023-04-15T08:25:30.165Z,98335.41
2023-04-15T08:29:34.728Z,98340.94
2023-04-15T08:33:39.305Z,98333.28
2023-04-15T08:37:43.030Z,98344.31
2023-04-15T08:41:49.810Z,98344.41
2023-04-15T08:45:55.565Z,98351.81
2023-04-15T08:50:02.159Z,98347.97
2023-04-15T08:54:07.251Z,98351.94
2023-04-15T08:58:12.123Z,98361.56
2023-04-15T09:02:16.650Z,98352.66
2023-04-15T09:06:23.314Z,98364.06
2023-04-15T09:10:28.002Z,98365.22
2023-04-15T09:14:32.872Z,98364.97
2023-04-15T09:18:37.866Z,98371.28
2023-04-15T09:22:42.963Z,98361.03
2023-04-15T09:26:46.675Z,98377.59
2023-04-15T09:30:53.753Z,98375.97
2023-04-15T09:34:56.667Z,98390.28
2023-04-15T09:39:01.812Z,98385.28
2023-04-15T09:43:05.409Z,98379.94
2023-04-15T09:47:08.332Z,98389.00
2023-04-15T09:51:11.707Z,98381.72
2023-04-15T09:55:17.364Z,98387.94
2023-04-15T09:59:21.775Z,98400.66
2023-04-15T10:03:26.948Z,98392.16
2023-04-15T10:07:31.201Z,98398.69
2023-04-15T10:11:37.669Z,98409.44
2023-04-15T10:15:40.801Z,98412.72
2023-04-15T10:19:44.677Z,98414.31
2023-04-15T10:23:49.286Z,98418.91
2023-04-15T10:27:53.905Z,98433.28
2023-04-15T10:31:56.992Z,98422.28
2023-04-15T10:36:00.786Z,98423.56
2023-04-15T10:40:25.660Z,98426.41
2023-04-15T10:44:31.286Z,98434.38
2023-04-15T10:48:34.432Z,98437.25
2023-04-15T10:52:37.944Z,98439.09
2023-04-15T10:56:43.188Z,98445.38
2023-04-15T11:00:52.729Z,98456.28
2023-04-15T11:04:58.358Z,98453.47
2023-04-15T11:09:06.298Z,98445.56
2023-04-15T11:13:17.962Z,98447.44
2023-04-15T11:17:30.314Z,98453.84
2023-04-15T11:21:34.776Z,98463.03
2023-04-15T11:25:38.468Z,98465.81
2023-04-15T11:29:42.048Z,98468.00
2023-04-15T11:33:56.128Z,98467.72
2023-04-15T11:38:01.564Z,98476.03
2023-04-15T11:42:05.214Z,98475.41
2023-04-15T11:46:08.639Z,98483.75
2023-04-15T11:50:22.217Z,98486.75
2023-04-15T11:54:27.317Z,98493.41
2023-04-15T11:58:31.976Z,98504.50
2023-04-15T12:02:39.306Z,98508.06
2023-04-15T12:06:44.086Z,98507.19
2023-04-15T12:10:46.948Z,98522.38
2023-04-15T12:14:53.224Z,98526.81
2023-04-15T12:18:57.067Z,98537.63
2023-04-15T12:23:08.211Z,98536.47
2023-04-15T12:27:14.614Z,98548.19
2023-04-15T12:31:18.093Z,98540.28
2023-04-15T12:35:21.890Z,98565.25
2023-04-15T12:39:30.611Z,98562.09
2023-04-15T12:43:34.297Z,98567.84
2023-04-15T12:47:37.822Z,98559.81
2023-04-15T12:51:41.132Z,98571.09
2023-04-15T12:55:45.771Z,98581.00
2023-04-15T12:59:49.265Z,98591.66
2023-04-15T13:03:54.258Z,98598.66
2023-04-15T13:07:57.595Z,98591.69
2023-04-15T13:12:02.705Z,98610.09
2023-04-15T13:16:06.692Z,98618.44
2023-04-15T13:20:10.836Z,98633.38
2023-04-15T13:24:14.234Z,98623.66
2023-04-15T13:28:19.334Z,98636.31
2023-04-15T13:32:23.000Z,98632.09
2023-04-15T13:36:26.465Z,98643.81
2023-04-15T13:40:29.758Z,98653.69
2023-04-15T13:44:33.745Z,98659.00
2023-04-15T13:48:38.015Z,98660.53
2023-04-15T13:52:41.264Z,98659.22
2023-04-15T13:56:44.027Z,98672.38
2023-04-15T14:00:48.258Z,98666.56
2023-04-15T14:04:51.542Z,98680.75
2023-04-15T14:08:55.003Z,98676.56
2023-04-15T14:12:58.056Z,98690.81
2023-04-15T14:17:03.021Z,98685.84
2023-04-15T14:21:07.530Z,98697.88
2023-04-15T14:25:15.136Z,98702.16
2023-04-15T14:29:26.711Z,98695.78
2023-04-15T14:33:30.903Z,98713.84
2023-04-15T14:37:34.195Z,98715.56
2023-04-15T14:41:37.802Z,98717.66
2023-04-15T14:45:43.707Z,98724.72
2023-04-15T14:49:49.604Z,98736.00
2023-04-15T14:53:52.927Z,98727.97
2023-04-15T14:57:55.954Z,98744.94
2023-04-15T15:01:59.054Z,98738.34
2023-04-15T15:06:03.596Z,98743.28
2023-04-15T15:10:07.660Z,98751.56
2023-04-15T15:14:11.856Z,98741.22
2023-04-15T15:18:15.643Z,98759.69
2023-04-15T15:22:21.453Z,98748.16
2023-04-15T15:26:24.565Z,98768.19
2023-04-15T15:30:27.277Z,98762.31
2023-04-15T15:34:30.622Z,98769.59
2023-04-15T15:38:35.269Z,98789.00
2023-04-15T15:42:38.945Z,98790.47
2023-04-15T15:46:42.106Z,98789.47
2023-04-15T15:50:46.011Z,98814.88
2023-04-15T15:54:50.711Z,98819.69
2023-04-15T15:58:54.335Z,98815.78
2023-04-15T16:07:04.480Z,98832.06
2023-04-15T16:11:09.146Z,98833.66
2023-04-15T16:15:13.187Z,98838.09
2023-04-15T16:19:16.570Z,98838.84
2023-04-15T16:23:21.664Z,98855.28
2023-04-15T16:27:26.064Z,98859.00
2023-04-15T16:31:29.171Z,98871.56
2023-04-15T16:35:34.457Z,98869.28
2023-04-15T16:39:37.956Z,98886.06
2023-04-15T16:43:42.952Z,98896.22
2023-04-15T16:47:45.855Z,98891.00
2023-04-15T16:51:49.115Z,98901.69
2023-04-15T16:55:52.504Z,98905.69
2023-04-15T16:59:56.980Z,98912.56
2023-04-15T17:04:00.259Z,98917.59
2023-04-15T17:08:03.318Z,98926.63
2023-04-15T17:12:06.475Z,98934.59
2023-04-15T17:16:11.274Z,98938.81
2023-04-15T17:20:14.319Z,98942.75
2023-04-15T17:24:17.146Z,98950.94
2023-04-15T17:28:20.248Z,98953.81
2023-04-15T17:32:24.924Z,98954.06
2023-04-15T17:36:27.945Z,98961.72
2023-04-15T17:40:30.750Z,98974.63
2023-04-15T17:44:33.725Z,98970.78
2023-04-15T17:48:38.237Z,98989.53
2023-04-15T17:52:41.701Z,98973.47
2023-04-15T17:56:44.449Z,98985.97
2023-04-15T18:00:47.456Z,98996.19
2023-04-15T18:04:51.994Z,99007.03
2023-04-15T18:08:55.144Z,99013.97
2023-04-15T18:12:58.128Z,99011.81
2023-04-15T18:17:01.128Z,99017.41
2023-04-15T18:21:06.188Z,99030.47
2023-04-15T18:25:10.237Z,99044.72
2023-04-15T18:29:13.350Z,99048.13
2023-04-15T18:33:16.602Z,99061.03
2023-04-15T18:37:20.949Z,99063.38
2023-04-15T18:41:25.286Z,99068.16
2023-04-15T18:45:28.129Z,99069.91
2023-04-15T18:49:32.364Z,99084.19
2023-04-15T18:53:36.909Z,99089.16
2023-04-15T18:57:42.840Z,99097.69
2023-04-15T19:01:47.460Z,99097.09
2023-04-15T19:05:50.921Z,99105.91
2023-04-15T19:09:55.803Z,99118.41
2023-04-15T19:13:58.905Z,99128.75
2023-04-15T19:18:02.266Z,99137.06
2023-04-15T19:22:06.161Z,99139.00
2023-04-15T19:26:10.610Z,99128.94
2023-04-15T19:30:14.113Z,99150.84
2023-04-15T19:34:17.539Z,99151.19
2023-04-15T19:38:20.632Z,99152.44
2023-04-15T19:42:25.340Z,99149.66
2023-04-15T19:46:28.699Z,99155.00
2023-04-15T19:50:33.405Z,99169.06
2023-04-15T19:54:36.729Z,99168.19
2023-04-15T19:58:41.505Z,99164.56
2023-04-15T20:02:44.945Z,99170.22
2023-04-15T20:06:48.109Z,99182.16
2023-04-15T20:10:51.466Z,99186.63
2023-04-15T20:14:56.233Z,99191.19
2023-04-15T20:19:02.105Z,99182.78
2023-04-15T20:23:05.235Z,99191.59
2023-04-15T20:27:08.378Z,99185.69
2023-04-15T20:31:13.412Z,99195.38
2023-04-15T20:35:16.636Z,99200.88
2023-04-15T20:39:19.952Z,99200.00
2023-04-15T20:43:22.900Z,99192.09
2023-04-15T20:47:27.790Z,99198.50
2023-04-15T20:51:37.331Z,99203.22
2023-04-15T20:56:00.309Z,99207.63
2023-04-15T21:00:04.209Z,99212.34
2023-04-15T21:04:09.190Z,99212.09
2023-04-15T21:08:13.041Z,99214.25
2023-04-15T21:12:16.583Z,99216.19
2023-04-15T21:16:19.731Z,99219.53
2023-04-15T21:20:24.605Z,99222.75
2023-04-15T21:24:27.721Z,99226.75
2023-04-15T21:28:31.000Z,99229.94
2023-04-15T21:32:34.814Z,99236.28
2023-04-15T21:36:39.966Z,99238.69
2023-04-15T21:40:43.158Z,99230.69
2023-04-15T21:44:46.533Z,99254.13
2023-04-15T21:48:49.756Z,99269.41
2023-04-15T21:52:54.327Z,99266.06
2023-04-15T21:56:57.451Z,99272.22
2023-04-15T22:01:00.784Z,99261.81
2023-04-15T22:05:04.035Z,99282.28
2023-04-15T22:09:08.698Z,99281.66
2023-04-15T22:13:13.024Z,99285.50
2023-04-15T22:17:16.051Z,99288.97
2023-04-15T22:21:22.116Z,99285.97
2023-04-15T22:25:27.283Z,99284.19
2023-04-15T22:29:30.614Z,99234.16
2023-04-15T22:33:33.948Z,99302.78
2023-04-15T22:37:36.920Z,99301.31
2023-04-15T22:41:41.583Z,99310.03
2023-04-15T22:45:50.303Z,99306.78
2023-04-15T22:49:53.405Z,99298.66
2023-04-15T22:53:56.792Z,99323.75
2023-04-15T22:58:01.294Z,99321.78
2023-04-15T23:02:04.469Z,99308.88
2023-04-15T23:06:07.742Z,99328.53
2023-04-15T23:10:11.408Z,99324.28
2023-04-15T23:14:19.191Z,99326.81
2023-04-15T23:18:22.591Z,99330.84
2023-04-15T23:22:25.532Z,99328.03
2023-04-15T23:26:28.813Z,99322.00
2023-04-15T23:30:33.504Z,99328.56
2023-04-15T23:34:36.965Z,99331.06
2023-04-15T23:38:43.020Z,99331.00
2023-04-15T23:42:46.611Z,99320.56
2023-04-15T23:46:51.835Z,99330.22
2023-04-15T23:50:54.878Z,99329.97
